KIZA

Santa Ynez Airport

Santa Ynez, California, USA
METAR KIZA 140435Z AUTO 08003KT 10SM CLR 12/01 A3032 RMK AO2
Observed Flight Rules
Nov-14 @ 04:35 UTC (14 minutes ago) Visual Flight Rules
Wind Visibility Clouds
80° at 3 knots 10 miles
  • Clear skies
Temperatures Readings
Current 12°C / 54°F
Dewpoint 1°C / 34°F
Humidity 47%
Altimeter 30.32" Hg
Pressure 1027 hPa
Elevation 205
METAR KIZA 140435Z AUTO 08003KT 10SM CLR 12/01 A3032 RMK AO2
Observed Flight Rules
Nov-14 @ 04:35 UTC
(14 minutes ago)
VFR
Wind Visibility
80° at 3 knots 10 miles
Clouds
  • Clear skies
Temperature Dewpoint
12°C / 54°F 1°C / 34°F
Humidity Altimeter Pressure
47% 30.32" Hg 1027 hPa